Zenken Maru — JG5556 — position and weather

sailwx.info

Track history (hours):
 
Tides and Currents Weather Stations Pressure Air Temp Water Temp Dewpoint Dewpoint Depression Visibility Wind Speed Wind Dir Waves Ship Positions

Zenken Maru

Last reported at 2015-Apr-01 16:33 UTC. Time now 2015-Apr-01 16:38 UTC.
Position N 35°21' E 139°41'.

Length 98 m; draft 7.2 m.

Type: Cargo ship. MMSI: 431100955.

Date/timePositionNaut miles runAvg speedWind from/ knotsBaromVisibWave heightAir tempDewpointWater temp
2015-Apr-01 16:33N 35°21' E 139°41'0 0.1
2015-Apr-01 15:33N 35°21' E 139°41'0 0.1
2015-Apr-01 14:33N 35°21' E 139°41'0 0.0
2015-Apr-01 13:33N 35°21' E 139°41'0 0.0
2015-Apr-01 12:33N 35°21' E 139°41'0 0.0
2015-Apr-01 11:33N 35°21' E 139°41'0 0.0
2015-Apr-01 10:33N 35°21' E 139°41'0 0.0
2015-Apr-01 09:33N 35°21' E 139°41'0 0.1
2015-Apr-01 08:30N 35°21' E 139°41'0 0.1
2015-Apr-01 07:33N 35°21' E 139°41'0 0.0
2015-Apr-01 06:33N 35°21' E 139°41'0 0.0
2015-Apr-01 05:33N 35°21' E 139°41'0 0.0
2015-Apr-01 04:33N 35°21' E 139°41'0 0.0
2015-Apr-01 03:33N 35°21' E 139°41'0 0.0
2015-Apr-01 02:30N 35°21' E 139°41'0 0.0
2015-Apr-01 01:33N 35°21' E 139°41'0 0.0
2015-Apr-01 00:33N 35°21' E 139°41'0 0.0
2015-Mar-31 23:30N 35°21' E 139°41'0 0.1
2015-Mar-31 22:33N 35°21' E 139°41'3 3.3
2015-Mar-31 21:33N 35°19' E 139°44'1111.0
2015-Mar-31 20:33N 35°08' E 139°45'1111.2
2015-Mar-31 19:33N 34°56' E 139°44'12 0.4
2015-Mar-30 11:33N 34°46' E 139°50'1211.7
2015-Mar-30 10:33N 34°56' E 139°44'1111.1
2015-Mar-30 09:34N 35°07' E 139°45'1111.0
2015-Mar-30 08:33N 35°18' E 139°44'6 6.1
2015-Mar-30 07:32N 35°23' E 139°39'0 0.0
2015-Mar-30 06:29N 35°23' E 139°39'0 0.0
2015-Mar-30 05:32N 35°23' E 139°39'0 0.0
2015-Mar-30 04:32N 35°23' E 139°39'0 0.0
2015-Mar-30 03:32N 35°23' E 139°39'0 0.0
2015-Mar-30 02:29N 35°23' E 139°39'0 0.0
2015-Mar-30 01:32N 35°23' E 139°39'0 0.0
2015-Mar-30 00:32N 35°23' E 139°39'0 0.0
2015-Mar-29 23:32N 35°23' E 139°39'0 0.4
2015-Mar-29 22:33N 35°23' E 139°40'3 2.7
2015-Mar-29 21:31N 35°21' E 139°41'0 0.0
2015-Mar-29 20:31N 35°21' E 139°41'0 0.0
2015-Mar-29 19:31N 35°21' E 139°41'0 0.0
2015-Mar-29 18:31N 35°21' E 139°41'0 0.0
2015-Mar-29 17:31N 35°21' E 139°41'0 0.0
2015-Mar-29 16:28N 35°21' E 139°41'0 0.1
2015-Mar-29 15:28N 35°21' E 139°41'0 0.1
2015-Mar-29 14:31N 35°21' E 139°41'0 0.0
2015-Mar-29 13:31N 35°21' E 139°41'0 0.0
2015-Mar-29 12:31N 35°21' E 139°41'0 0.0
2015-Mar-29 11:31N 35°21' E 139°41'0 0.0
2015-Mar-29 10:31N 35°21' E 139°41'0 0.1
2015-Mar-29 09:31N 35°21' E 139°41'0 0.0
2015-Mar-29 08:31N 35°21' E 139°41'0 0.0
2015-Mar-29 07:28N 35°21' E 139°41'0 0.0
2015-Mar-29 06:31N 35°21' E 139°41'0 0.0
2015-Mar-29 05:28N 35°21' E 139°41'0 0.0
2015-Mar-29 04:31N 35°21' E 139°41'0 0.0
2015-Mar-29 03:28N 35°21' E 139°41'0 0.0
2015-Mar-29 02:31N 35°21' E 139°41'0 0.0
2015-Mar-29 01:31N 35°21' E 139°41'0 0.0
2015-Mar-29 00:31N 35°21' E 139°41'0 0.1
2015-Mar-28 23:31N 35°21' E 139°41'0 0.0
2015-Mar-28 22:31N 35°21' E 139°41'0 0.1
2015-Mar-28 21:31N 35°21' E 139°41'0 0.0
2015-Mar-28 20:31N 35°21' E 139°41'0 0.0
2015-Mar-28 19:31N 35°21' E 139°41'0 0.1
2015-Mar-28 18:31N 35°21' E 139°41'4 4.2
2015-Mar-28 17:34N 35°18' E 139°45'1111.1
2015-Mar-28 16:34N 35°07' E 139°45'1111.3
2015-Mar-28 15:33N 34°56' E 139°45'1110.5
2015-Mar-28 14:32N 34°46' E 139°50'1010.2
2015-Mar-28 13:33N 34°37' E 139°56'21 0.7
2015-Mar-27 06:29N 34°56' E 139°45'1010.8
2015-Mar-27 05:34N 35°06' E 139°45'1111.3
2015-Mar-27 04:34N 35°17' E 139°45'8 7.8
2015-Mar-27 03:32N 35°23' E 139°39'0 0.0
2015-Mar-27 02:32N 35°23' E 139°39'0 0.0
2015-Mar-27 01:32N 35°23' E 139°39'0 0.0
2015-Mar-27 00:32N 35°23' E 139°39'0 0.0
2015-Mar-26 23:32N 35°23' E 139°39'0 0.3
2015-Mar-26 22:33N 35°23' E 139°39'3 2.8
2015-Mar-26 21:32N 35°21' E 139°41'0 0.0
2015-Mar-26 20:32N 35°21' E 139°41'0 0.0
2015-Mar-26 19:32N 35°21' E 139°41'0 0.1
2015-Mar-26 18:32N 35°21' E 139°41'0 0.0
2015-Mar-26 17:32N 35°21' E 139°41'0 0.0
2015-Mar-26 16:32N 35°21' E 139°41'0 0.0
2015-Mar-26 15:32N 35°21' E 139°41'0 0.0
2015-Mar-26 14:32N 35°21' E 139°41'0 0.1
2015-Mar-26 13:32N 35°21' E 139°41'0 0.0
2015-Mar-26 12:32N 35°21' E 139°41'0 0.1
2015-Mar-26 11:26N 35°21' E 139°41'0 0.0
2015-Mar-26 10:29N 35°21' E 139°41'0 0.0
2015-Mar-26 09:32N 35°21' E 139°41'0 0.0
2015-Mar-26 08:32N 35°21' E 139°41'0 0.0
2015-Mar-26 07:32N 35°21' E 139°41'0 0.0
2015-Mar-26 06:32N 35°21' E 139°41'0 0.0
2015-Mar-26 05:32N 35°21' E 139°41'0 0.0
2015-Mar-26 04:32N 35°21' E 139°41'0 0.0
2015-Mar-26 03:29N 35°21' E 139°41'0 0.0
2015-Mar-26 02:23N 35°21' E 139°41'0 0.0
2015-Mar-26 01:32N 35°21' E 139°41'0 0.0
2015-Mar-26 00:32N 35°21' E 139°41'0 0.0
2015-Mar-25 23:32N 35°21' E 139°41'0 0.0
2015-Mar-25 22:32N 35°21' E 139°41'0 0.0
2015-Mar-25 21:32N 35°21' E 139°41'0 0.0
2015-Mar-25 20:32N 35°21' E 139°41'0 0.0
2015-Mar-25 19:32N 35°21' E 139°41'0 0.0
2015-Mar-25 18:23N 35°21' E 139°41'0 0.0
2015-Mar-25 17:32N 35°21' E 139°41'0 0.0
2015-Mar-25 16:32N 35°21' E 139°41'0 0.0
2015-Mar-25 15:32N 35°21' E 139°41'0 0.0
2015-Mar-25 14:32N 35°21' E 139°41'0 0.0
2015-Mar-25 13:32N 35°21' E 139°41'0 0.0
2015-Mar-25 12:32N 35°21' E 139°41'0 0.0
2015-Mar-25 11:32N 35°21' E 139°41'0 0.0
2015-Mar-25 10:32N 35°21' E 139°41'0 0.1
2015-Mar-25 09:32N 35°21' E 139°41'0 0.1
2015-Mar-25 08:32N 35°21' E 139°41'0 0.0
2015-Mar-25 07:32N 35°21' E 139°41'0 0.0
2015-Mar-25 06:32N 35°21' E 139°41'0 0.1
2015-Mar-25 05:32N 35°21' E 139°41'0 0.0
2015-Mar-25 04:32N 35°21' E 139°41'0 0.0
2015-Mar-25 03:32N 35°21' E 139°41'0 0.0
2015-Mar-25 02:32N 35°21' E 139°41'0 0.0
2015-Mar-25 01:32N 35°21' E 139°41'0 0.0
2015-Mar-25 00:32N 35°21' E 139°41'0 0.0
2015-Mar-24 23:32N 35°21' E 139°41'0 0.0
2015-Mar-24 22:32N 35°21' E 139°41'0 0.0
2015-Mar-24 21:29N 35°21' E 139°41'0 0.0
2015-Mar-24 20:32N 35°21' E 139°41'0 0.0
2015-Mar-24 19:32N 35°21' E 139°41'0 0.0
2015-Mar-24 18:32N 35°21' E 139°41'0 0.0
2015-Mar-24 17:32N 35°21' E 139°41'0 0.0
2015-Mar-24 16:32N 35°21' E 139°41'0 0.0
2015-Mar-24 15:32N 35°21' E 139°41'0 0.0
2015-Mar-24 14:32N 35°21' E 139°41'0 0.0
2015-Mar-24 13:32N 35°21' E 139°41'0 0.0
2015-Mar-24 12:32N 35°21' E 139°41'0 0.0
2015-Mar-24 11:32N 35°21' E 139°41'0 0.0
2015-Mar-24 10:32N 35°21' E 139°41'0 0.1
2015-Mar-24 09:32N 35°21' E 139°41'0 0.1
2015-Mar-24 08:32N 35°21' E 139°41'3 2.7
2015-Mar-24 07:29N 35°23' E 139°39'0 0.0
2015-Mar-24 06:29N 35°23' E 139°39'0 0.0
2015-Mar-24 05:29N 35°23' E 139°39'0 0.0
2015-Mar-24 04:32N 35°23' E 139°39'0 0.0
2015-Mar-24 03:32N 35°23' E 139°39'0 0.0
2015-Mar-24 02:32N 35°23' E 139°39'0 0.0
2015-Mar-24 01:29N 35°23' E 139°39'0 0.0
2015-Mar-24 00:32N 35°23' E 139°39'0 0.0
2015-Mar-23 23:32N 35°23' E 139°39'0 0.5
2015-Mar-23 22:33N 35°23' E 139°40'3 2.8
2015-Mar-23 21:32N 35°21' E 139°41'0 0.0
2015-Mar-23 20:32N 35°21' E 139°41'0 0.0
2015-Mar-23 19:32N 35°21' E 139°41'0 0.0
2015-Mar-23 18:32N 35°21' E 139°41'0 0.0
2015-Mar-23 17:32N 35°21' E 139°41'0 0.0
2015-Mar-23 16:32N 35°21' E 139°41'0 0.0
2015-Mar-23 15:32N 35°21' E 139°41'0 0.0
2015-Mar-23 14:32N 35°21' E 139°41'0 0.0
2015-Mar-23 13:32N 35°21' E 139°41'0 0.0
2015-Mar-23 12:32N 35°21' E 139°41'0 0.0
2015-Mar-23 11:32N 35°21' E 139°41'0 0.1
2015-Mar-23 10:32N 35°21' E 139°41'0 0.0
2015-Mar-23 09:32N 35°21' E 139°41'0 0.0
2015-Mar-23 08:29N 35°21' E 139°41'0 0.1
2015-Mar-23 07:32N 35°21' E 139°41'0 0.0
2015-Mar-23 06:29N 35°21' E 139°41'0 0.0
2015-Mar-23 05:29N 35°21' E 139°41'0 0.0
2015-Mar-23 04:29N 35°21' E 139°41'0 0.0
2015-Mar-23 03:32N 35°21' E 139°41'0 0.0
2015-Mar-23 02:32N 35°21' E 139°41'0 0.1
2015-Mar-23 01:32N 35°21' E 139°41'0 0.0
2015-Mar-23 00:32N 35°21' E 139°41'0 0.0
2015-Mar-22 23:32N 35°21' E 139°41'0 0.0
2015-Mar-22 22:32N 35°21' E 139°41'0 0.0
2015-Mar-22 21:32N 35°21' E 139°41'4 4.4
2015-Mar-22 20:34N 35°18' E 139°45'10 9.5
2015-Mar-22 19:33N 35°08' E 139°46'9 9.2
2015-Mar-22 18:33N 34°59' E 139°43'9 8.5
2015-Mar-22 17:32N 34°51' E 139°48'  
Track history (hours):
 
Tides and Currents Weather Stations Pressure Air Temp Water Temp Dewpoint Dewpoint Depression Visibility Wind Speed Wind Dir Waves Ship Positions

Zenken Maru

Last reported at 2015-Apr-01 16:33 UTC. Time now 2015-Apr-01 16:38 UTC.
Position N 35°21' E 139°41'.

Length 98 m; draft 7.2 m.

Type: Cargo ship. MMSI: 431100955.

Date/timePositionNaut miles runAvg speedWind from/ knotsBaromVisibWave heightAir tempDewpointWater temp
2015-Apr-01 16:33N 35°21' E 139°41'0 0.1
2015-Apr-01 15:33N 35°21' E 139°41'0 0.1
2015-Apr-01 14:33N 35°21' E 139°41'0 0.0
2015-Apr-01 13:33N 35°21' E 139°41'0 0.0
2015-Apr-01 12:33N 35°21' E 139°41'0 0.0
2015-Apr-01 11:33N 35°21' E 139°41'0 0.0
2015-Apr-01 10:33N 35°21' E 139°41'0 0.0
2015-Apr-01 09:33N 35°21' E 139°41'0 0.1
2015-Apr-01 08:30N 35°21' E 139°41'0 0.1
2015-Apr-01 07:33N 35°21' E 139°41'0 0.0
2015-Apr-01 06:33N 35°21' E 139°41'0 0.0
2015-Apr-01 05:33N 35°21' E 139°41'0 0.0
2015-Apr-01 04:33N 35°21' E 139°41'0 0.0
2015-Apr-01 03:33N 35°21' E 139°41'0 0.0
2015-Apr-01 02:30N 35°21' E 139°41'0 0.0
2015-Apr-01 01:33N 35°21' E 139°41'0 0.0
2015-Apr-01 00:33N 35°21' E 139°41'0 0.0
2015-Mar-31 23:30N 35°21' E 139°41'0 0.1
2015-Mar-31 22:33N 35°21' E 139°41'3 3.3
2015-Mar-31 21:33N 35°19' E 139°44'1111.0
2015-Mar-31 20:33N 35°08' E 139°45'1111.2
2015-Mar-31 19:33N 34°56' E 139°44'12 0.4
2015-Mar-30 11:33N 34°46' E 139°50'1211.7
2015-Mar-30 10:33N 34°56' E 139°44'1111.1
2015-Mar-30 09:34N 35°07' E 139°45'1111.0
2015-Mar-30 08:33N 35°18' E 139°44'6 6.1
2015-Mar-30 07:32N 35°23' E 139°39'0 0.0
2015-Mar-30 06:29N 35°23' E 139°39'0 0.0
2015-Mar-30 05:32N 35°23' E 139°39'0 0.0
2015-Mar-30 04:32N 35°23' E 139°39'0 0.0
2015-Mar-30 03:32N 35°23' E 139°39'0 0.0
2015-Mar-30 02:29N 35°23' E 139°39'0 0.0
2015-Mar-30 01:32N 35°23' E 139°39'0 0.0
2015-Mar-30 00:32N 35°23' E 139°39'0 0.0
2015-Mar-29 23:32N 35°23' E 139°39'0 0.4
2015-Mar-29 22:33N 35°23' E 139°40'3 2.7
2015-Mar-29 21:31N 35°21' E 139°41'0 0.0
2015-Mar-29 20:31N 35°21' E 139°41'0 0.0
2015-Mar-29 19:31N 35°21' E 139°41'0 0.0
2015-Mar-29 18:31N 35°21' E 139°41'0 0.0
2015-Mar-29 17:31N 35°21' E 139°41'0 0.0
2015-Mar-29 16:28N 35°21' E 139°41'0 0.1
2015-Mar-29 15:28N 35°21' E 139°41'0 0.1
2015-Mar-29 14:31N 35°21' E 139°41'0 0.0
2015-Mar-29 13:31N 35°21' E 139°41'0 0.0
2015-Mar-29 12:31N 35°21' E 139°41'0 0.0
2015-Mar-29 11:31N 35°21' E 139°41'0 0.0
2015-Mar-29 10:31N 35°21' E 139°41'0 0.1
2015-Mar-29 09:31N 35°21' E 139°41'0 0.0
2015-Mar-29 08:31N 35°21' E 139°41'0 0.0
2015-Mar-29 07:28N 35°21' E 139°41'0 0.0
2015-Mar-29 06:31N 35°21' E 139°41'0 0.0
2015-Mar-29 05:28N 35°21' E 139°41'0 0.0
2015-Mar-29 04:31N 35°21' E 139°41'0 0.0
2015-Mar-29 03:28N 35°21' E 139°41'0 0.0
2015-Mar-29 02:31N 35°21' E 139°41'0 0.0
2015-Mar-29 01:31N 35°21' E 139°41'0 0.0
2015-Mar-29 00:31N 35°21' E 139°41'0 0.1
2015-Mar-28 23:31N 35°21' E 139°41'0 0.0
2015-Mar-28 22:31N 35°21' E 139°41'0 0.1
2015-Mar-28 21:31N 35°21' E 139°41'0 0.0
2015-Mar-28 20:31N 35°21' E 139°41'0 0.0
2015-Mar-28 19:31N 35°21' E 139°41'0 0.1
2015-Mar-28 18:31N 35°21' E 139°41'4 4.2
2015-Mar-28 17:34N 35°18' E 139°45'1111.1
2015-Mar-28 16:34N 35°07' E 139°45'1111.3
2015-Mar-28 15:33N 34°56' E 139°45'1110.5
2015-Mar-28 14:32N 34°46' E 139°50'1010.2
2015-Mar-28 13:33N 34°37' E 139°56'21 0.7
2015-Mar-27 06:29N 34°56' E 139°45'1010.8
2015-Mar-27 05:34N 35°06' E 139°45'1111.3
2015-Mar-27 04:34N 35°17' E 139°45'8 7.8
2015-Mar-27 03:32N 35°23' E 139°39'0 0.0
2015-Mar-27 02:32N 35°23' E 139°39'0 0.0
2015-Mar-27 01:32N 35°23' E 139°39'0 0.0
2015-Mar-27 00:32N 35°23' E 139°39'0 0.0
2015-Mar-26 23:32N 35°23' E 139°39'0 0.3
2015-Mar-26 22:33N 35°23' E 139°39'3 2.8
2015-Mar-26 21:32N 35°21' E 139°41'0 0.0
2015-Mar-26 20:32N 35°21' E 139°41'0 0.0
2015-Mar-26 19:32N 35°21' E 139°41'0 0.1
2015-Mar-26 18:32N 35°21' E 139°41'0 0.0
2015-Mar-26 17:32N 35°21' E 139°41'0 0.0
2015-Mar-26 16:32N 35°21' E 139°41'0 0.0
2015-Mar-26 15:32N 35°21' E 139°41'0 0.0
2015-Mar-26 14:32N 35°21' E 139°41'0 0.1
2015-Mar-26 13:32N 35°21' E 139°41'0 0.0
2015-Mar-26 12:32N 35°21' E 139°41'0 0.1
2015-Mar-26 11:26N 35°21' E 139°41'0 0.0
2015-Mar-26 10:29N 35°21' E 139°41'0 0.0
2015-Mar-26 09:32N 35°21' E 139°41'0 0.0
2015-Mar-26 08:32N 35°21' E 139°41'0 0.0
2015-Mar-26 07:32N 35°21' E 139°41'0 0.0
2015-Mar-26 06:32N 35°21' E 139°41'0 0.0
2015-Mar-26 05:32N 35°21' E 139°41'0 0.0
2015-Mar-26 04:32N 35°21' E 139°41'0 0.0
2015-Mar-26 03:29N 35°21' E 139°41'0 0.0
2015-Mar-26 02:23N 35°21' E 139°41'0 0.0
2015-Mar-26 01:32N 35°21' E 139°41'0 0.0
2015-Mar-26 00:32N 35°21' E 139°41'0 0.0
2015-Mar-25 23:32N 35°21' E 139°41'0 0.0
2015-Mar-25 22:32N 35°21' E 139°41'0 0.0
2015-Mar-25 21:32N 35°21' E 139°41'0 0.0
2015-Mar-25 20:32N 35°21' E 139°41'0 0.0
2015-Mar-25 19:32N 35°21' E 139°41'0 0.0
2015-Mar-25 18:23N 35°21' E 139°41'0 0.0
2015-Mar-25 17:32N 35°21' E 139°41'0 0.0
2015-Mar-25 16:32N 35°21' E 139°41'0 0.0
2015-Mar-25 15:32N 35°21' E 139°41'0 0.0
2015-Mar-25 14:32N 35°21' E 139°41'0 0.0
2015-Mar-25 13:32N 35°21' E 139°41'0 0.0
2015-Mar-25 12:32N 35°21' E 139°41'0 0.0
2015-Mar-25 11:32N 35°21' E 139°41'0 0.0
2015-Mar-25 10:32N 35°21' E 139°41'0 0.1
2015-Mar-25 09:32N 35°21' E 139°41'0 0.1
2015-Mar-25 08:32N 35°21' E 139°41'0 0.0
2015-Mar-25 07:32N 35°21' E 139°41'0 0.0
2015-Mar-25 06:32N 35°21' E 139°41'0 0.1
2015-Mar-25 05:32N 35°21' E 139°41'0 0.0
2015-Mar-25 04:32N 35°21' E 139°41'0 0.0
2015-Mar-25 03:32N 35°21' E 139°41'0 0.0
2015-Mar-25 02:32N 35°21' E 139°41'0 0.0
2015-Mar-25 01:32N 35°21' E 139°41'0 0.0
2015-Mar-25 00:32N 35°21' E 139°41'0 0.0
2015-Mar-24 23:32N 35°21' E 139°41'0 0.0
2015-Mar-24 22:32N 35°21' E 139°41'0 0.0
2015-Mar-24 21:29N 35°21' E 139°41'0 0.0
2015-Mar-24 20:32N 35°21' E 139°41'0 0.0
2015-Mar-24 19:32N 35°21' E 139°41'0 0.0
2015-Mar-24 18:32N 35°21' E 139°41'0 0.0
2015-Mar-24 17:32N 35°21' E 139°41'0 0.0
2015-Mar-24 16:32N 35°21' E 139°41'0 0.0
2015-Mar-24 15:32N 35°21' E 139°41'0 0.0
2015-Mar-24 14:32N 35°21' E 139°41'0 0.0
2015-Mar-24 13:32N 35°21' E 139°41'0 0.0
2015-Mar-24 12:32N 35°21' E 139°41'0 0.0
2015-Mar-24 11:32N 35°21' E 139°41'0 0.0
2015-Mar-24 10:32N 35°21' E 139°41'0 0.1
2015-Mar-24 09:32N 35°21' E 139°41'0 0.1
2015-Mar-24 08:32N 35°21' E 139°41'3 2.7
2015-Mar-24 07:29N 35°23' E 139°39'0 0.0
2015-Mar-24 06:29N 35°23' E 139°39'0 0.0
2015-Mar-24 05:29N 35°23' E 139°39'0 0.0
2015-Mar-24 04:32N 35°23' E 139°39'0 0.0
2015-Mar-24 03:32N 35°23' E 139°39'0 0.0
2015-Mar-24 02:32N 35°23' E 139°39'0 0.0
2015-Mar-24 01:29N 35°23' E 139°39'0 0.0
2015-Mar-24 00:32N 35°23' E 139°39'0 0.0
2015-Mar-23 23:32N 35°23' E 139°39'0 0.5
2015-Mar-23 22:33N 35°23' E 139°40'3 2.8
2015-Mar-23 21:32N 35°21' E 139°41'0 0.0
2015-Mar-23 20:32N 35°21' E 139°41'0 0.0
2015-Mar-23 19:32N 35°21' E 139°41'0 0.0
2015-Mar-23 18:32N 35°21' E 139°41'0 0.0
2015-Mar-23 17:32N 35°21' E 139°41'0 0.0
2015-Mar-23 16:32N 35°21' E 139°41'0 0.0
2015-Mar-23 15:32N 35°21' E 139°41'0 0.0
2015-Mar-23 14:32N 35°21' E 139°41'0 0.0
2015-Mar-23 13:32N 35°21' E 139°41'0 0.0
2015-Mar-23 12:32N 35°21' E 139°41'0 0.0
2015-Mar-23 11:32N 35°21' E 139°41'0 0.1
2015-Mar-23 10:32N 35°21' E 139°41'0 0.0
2015-Mar-23 09:32N 35°21' E 139°41'0 0.0
2015-Mar-23 08:29N 35°21' E 139°41'0 0.1
2015-Mar-23 07:32N 35°21' E 139°41'0 0.0
2015-Mar-23 06:29N 35°21' E 139°41'0 0.0
2015-Mar-23 05:29N 35°21' E 139°41'0 0.0
2015-Mar-23 04:29N 35°21' E 139°41'0 0.0
2015-Mar-23 03:32N 35°21' E 139°41'0 0.0
2015-Mar-23 02:32N 35°21' E 139°41'0 0.1
2015-Mar-23 01:32N 35°21' E 139°41'0 0.0
2015-Mar-23 00:32N 35°21' E 139°41'0 0.0
2015-Mar-22 23:32N 35°21' E 139°41'0 0.0
2015-Mar-22 22:32N 35°21' E 139°41'0 0.0
2015-Mar-22 21:32N 35°21' E 139°41'4 4.4
2015-Mar-22 20:34N 35°18' E 139°45'10 9.5
2015-Mar-22 19:33N 35°08' E 139°46'9 9.2
2015-Mar-22 18:33N 34°59' E 139°43'9 8.5
2015-Mar-22 17:32N 34°51' E 139°48'  

Dump ship's entire track history